Time;durP1;ratioP1;P1;durP2;ratioP2;P2;SDS_P1;SDS_P2;PMS_P1;PMS_P2;Temp;Humidity;BMP_temperature;BMP_pressure;BME280_temperature;BME280_humidity;BME280_pressure;Samples;Min_cycle;Max_cycle;Signal;HPM_P1;HPM_P2
2021/06/09 00:00:12;;;;;;;13.22;7.62;;;;;;;16.30;87.77;98548.46;1870647;76;22620;-67
2021/06/09 00:02:46;;;;;;;9.45;5.92;;;;;;;16.24;87.89;98542.93;1889955;76;22171;-69
2021/06/09 17:11:04;;;;;;;11.93;5.33;;;;;;;20.92;64.02;98508.88;1832872;77;22175;-65
2021/06/09 17:13:40;;;;;;;8.53;5.50;;;;;;;20.89;64.16;98511.62;1838653;76;27937;-66
2021/06/09 17:16:28;;;;;;;8.58;5.15;;;;;;;21.03;63.60;98489.63;1812988;78;21146;-64
2021/06/09 17:19:03;;;;;;;10.68;5.50;;;;;;;21.08;63.58;98497.78;1849950;76;22179;-65
2021/06/09 17:21:39;;;;;;;9.65;5.00;;;;;;;20.84;64.27;98500.45;1854450;76;22627;-66
2021/06/09 17:24:14;;;;;;;9.18;5.50;;;;;;;20.90;63.97;98504.14;1848119;76;22198;-65
2021/06/09 17:26:49;;;;;;;8.18;5.10;;;;;;;20.82;64.25;98506.20;1841115;76;27934;-67
2021/06/09 17:29:24;;;;;;;11.25;5.47;;;;;;;20.73;64.45;98506.08;1859245;76;22598;-62
2021/06/09 17:32:00;;;;;;;8.33;5.30;;;;;;;20.64;64.75;98502.51;1854507;76;27943;-63
2021/06/09 17:34:36;;;;;;;9.38;5.30;;;;;;;20.57;64.97;98501.87;1873836;76;28377;-66
2021/06/09 17:37:12;;;;;;;8.65;4.85;;;;;;;20.51;65.23;98508.63;1889813;76;22204;-63
2021/06/09 17:39:48;;;;;;;12.95;5.58;;;;;;;20.42;65.51;98507.64;1854480;76;28002;-64
2021/06/09 17:42:25;;;;;;;8.03;5.40;;;;;;;20.42;65.68;98511.58;1889755;76;22136;-66
2021/06/09 17:45:00;;;;;;;6.20;4.90;;;;;;;20.37;65.97;98504.33;1876509;76;22613;-62
2021/06/09 17:47:35;;;;;;;11.50;5.70;;;;;;;20.28;66.14;98513.86;1869846;76;22240;-65
2021/06/09 17:50:17;;;;;;;9.68;5.67;;;;;;;20.04;66.65;98519.02;1888951;76;22271;-64
2021/06/09 17:52:59;;;;;;;9.08;5.58;;;;;;;20.09;67.00;98521.03;1889824;76;22190;-67
2021/06/09 17:55:47;;;;;;;12.25;5.95;;;;;;;20.02;67.26;98527.84;1861300;77;21162;-66
2021/06/09 17:58:25;;;;;;;9.95;6.15;;;;;;;19.79;68.25;98533.86;1870532;76;22149;-64
2021/06/09 18:01:06;;;;;;;8.13;5.33;;;;;;;19.83;68.23;98526.31;1889801;76;22140;-65
2021/06/09 18:03:39;;;;;;;7.90;5.37;;;;;;;19.74;68.46;98531.39;1870583;76;22149;-64
2021/06/09 18:06:14;;;;;;;10.23;5.15;;;;;;;19.66;68.74;98530.30;1870486;76;22145;-64
2021/06/09 18:08:52;;;;;;;10.40;5.75;;;;;;;19.61;69.02;98528.28;1889886;76;22582;-64
2021/06/09 18:11:29;;;;;;;10.65;5.80;;;;;;;19.55;69.18;98536.35;1870604;76;22587;-64
2021/06/09 18:14:15;;;;;;;9.28;5.33;;;;;;;19.47;69.60;98534.44;1760488;81;21738;-66
2021/06/09 18:16:50;;;;;;;7.42;5.60;;;;;;;19.44;69.81;98542.39;1854521;76;27878;-66
2021/06/09 18:19:25;;;;;;;7.37;5.50;;;;;;;19.39;70.13;98537.76;1870618;76;22171;-65
2021/06/09 18:22:00;;;;;;;8.20;5.65;;;;;;;19.28;70.40;98535.45;1889886;76;22144;-66
2021/06/09 18:24:34;;;;;;;12.07;5.70;;;;;;;19.19;70.62;98529.22;1870531;76;22172;-67
2021/06/09 18:27:10;;;;;;;9.98;5.72;;;;;;;19.17;70.87;98529.25;1873877;76;28330;-67
2021/06/09 18:29:44;;;;;;;15.18;5.62;;;;;;;19.20;71.02;98523.92;1870592;76;22136;-66
2021/06/09 18:32:20;;;;;;;8.90;5.70;;;;;;;19.17;71.16;98520.55;1870514;76;22141;-66
2021/06/09 18:34:55;;;;;;;8.45;6.20;;;;;;;19.14;71.24;98536.35;1840169;76;22240;-66
2021/06/09 18:37:30;;;;;;;10.00;5.75;;;;;;;19.11;71.44;98535.99;1870413;76;22159;-65
2021/06/09 18:40:12;;;;;;;8.83;6.08;;;;;;;19.08;71.49;98540.87;1889872;76;22156;-67
2021/06/09 18:43:02;;;;;;;8.05;5.90;;;;;;;18.99;71.53;98545.52;1791531;80;21154;-64
2021/06/09 18:45:44;;;;;;;7.37;5.53;;;;;;;19.01;71.74;98546.33;1889901;76;22565;-67
2021/06/09 18:48:21;;;;;;;10.60;7.53;;;;;;;18.97;71.71;98546.00;1854749;76;28357;-64
2021/06/09 18:51:03;;;;;;;7.72;5.80;;;;;;;18.97;71.89;98542.93;1869793;76;22136;-67
2021/06/09 18:53:39;;;;;;;14.78;6.87;;;;;;;18.97;71.77;98538.16;1889923;76;22108;-65
2021/06/09 18:56:14;;;;;;;10.93;6.80;;;;;;;18.95;71.94;98532.11;1873875;76;27920;-67
2021/06/09 18:58:50;;;;;;;9.25;6.05;;;;;;;19.00;71.91;98540.67;1873886;76;27955;-65
2021/06/09 19:01:25;;;;;;;10.45;5.62;;;;;;;19.08;71.63;98534.75;1889902;76;22120;-66
2021/06/09 19:04:00;;;;;;;9.23;5.75;;;;;;;19.06;71.47;98547.05;1870676;76;22140;-64
2021/06/09 19:06:36;;;;;;;12.05;5.62;;;;;;;19.02;71.50;98545.41;1870656;76;22150;-65
2021/06/09 19:09:11;;;;;;;7.22;5.55;;;;;;;18.94;71.72;98547.41;1870641;76;22153;-65
2021/06/09 19:11:46;;;;;;;8.88;5.72;;;;;;;18.81;72.03;98534.69;1870622;76;22137;-64
2021/06/09 19:14:22;;;;;;;11.25;5.75;;;;;;;18.73;72.47;98537.95;1870626;76;22592;-66
2021/06/09 19:16:58;;;;;;;8.40;5.75;;;;;;;18.65;72.80;98549.08;1854665;76;27921;-66
2021/06/09 19:19:46;;;;;;;10.03;5.75;;;;;;;18.56;72.55;98553.25;1827697;78;21510;-63
2021/06/09 19:22:22;;;;;;;11.53;6.37;;;;;;;18.50;73.04;98549.52;1889896;76;22151;-65
2021/06/09 19:24:56;;;;;;;9.70;6.72;;;;;;;18.54;73.06;98541.98;1854781;76;27966;-65
2021/06/09 19:27:32;;;;;;;9.65;6.10;;;;;;;18.48;73.24;98553.47;1889872;76;22262;-66
2021/06/09 19:30:13;;;;;;;8.63;5.45;;;;;;;18.39;73.56;98553.28;1870590;76;22145;-65
2021/06/09 19:32:52;;;;;;;11.50;5.65;;;;;;;18.31;73.96;98548.69;1876038;76;22148;-66
2021/06/09 19:35:29;;;;;;;9.60;6.30;;;;;;;18.26;74.23;98548.41;1870592;76;22152;-65
2021/06/09 19:38:23;;;;;;;9.45;6.03;;;;;;;18.21;74.57;98544.61;1875840;75;22256;-66
2021/06/09 19:41:10;;;;;;;8.70;6.45;;;;;;;18.21;74.61;98550.69;1870413;76;22140;-66
2021/06/09 19:43:45;;;;;;;8.93;6.40;;;;;;;18.22;74.73;98545.89;1889863;76;22519;-67
2021/06/09 19:46:32;;;;;;;18.65;6.55;;;;;;;18.14;74.86;98550.89;1861275;77;21149;-66
2021/06/09 19:49:07;;;;;;;11.68;5.72;;;;;;;18.17;75.24;98539.93;1870598;76;22136;-67
2021/06/09 19:51:42;;;;;;;8.58;5.30;;;;;;;18.11;75.47;98547.06;1870587;76;22147;-65
2021/06/09 19:54:16;;;;;;;8.68;5.47;;;;;;;18.06;75.65;98535.88;1870606;76;22136;-67
2021/06/09 19:56:51;;;;;;;8.55;5.75;;;;;;;18.06;75.89;98530.66;1870584;76;22169;-67
2021/06/09 19:59:36;;;;;;;7.55;5.83;;;;;;;17.98;76.13;98540.84;1827388;78;21186;-66
2021/06/09 20:02:11;;;;;;;9.25;5.87;;;;;;;17.99;76.49;98535.20;1870523;76;22116;-66
2021/06/09 20:04:46;;;;;;;8.00;5.40;;;;;;;17.91;76.90;98535.82;1870575;76;22226;-65
2021/06/09 20:07:20;;;;;;;7.42;5.47;;;;;;;17.85;77.35;98532.92;1870584;76;22157;-66
2021/06/09 20:09:55;;;;;;;7.37;5.28;;;;;;;17.81;77.64;98536.53;1870602;76;22152;-65
2021/06/09 20:12:30;;;;;;;9.78;6.10;;;;;;;17.87;77.72;98537.66;1880727;76;22539;-66
2021/06/09 20:15:07;;;;;;;10.15;6.45;;;;;;;17.89;77.82;98533.27;1844802;76;22216;-64
2021/06/09 20:17:41;;;;;;;16.17;6.20;;;;;;;17.91;77.77;98541.04;1889654;76;22574;-66
2021/06/09 20:20:16;;;;;;;11.30;5.78;;;;;;;17.86;77.83;98534.66;1870554;76;22160;-65
2021/06/09 20:22:57;;;;;;;10.55;6.25;;;;;;;17.73;78.46;98535.80;1889914;76;22159;-67
2021/06/09 20:28:17;;;;;;;11.65;6.70;;;;;;;17.54;79.85;98538.88;1854504;76;27943;-66
2021/06/09 20:30:51;;;;;;;9.13;6.87;;;;;;;17.61;79.98;98544.81;1878419;76;22133;-66
2021/06/09 20:33:26;;;;;;;11.00;6.28;;;;;;;17.58;80.20;98548.34;1849677;76;22194;-66
2021/06/09 20:36:05;;;;;;;10.40;5.70;;;;;;;17.57;80.61;98546.62;1837409;76;27965;-64
2021/06/09 20:38:44;;;;;;;8.35;5.37;;;;;;;17.70;80.72;98548.94;1853627;76;22163;-66
2021/06/09 20:41:31;;;;;;;6.90;5.67;;;;;;;17.67;80.70;98555.09;1812801;78;21299;-65
2021/06/09 20:44:13;;;;;;;6.62;5.60;;;;;;;17.77;80.57;98554.42;1851255;76;22184;-62
2021/06/09 20:47:07;;;;;;;7.97;5.75;;;;;;;17.72;80.84;98551.92;1862742;76;22223;-65
2021/06/09 20:49:53;;;;;;;7.87;5.70;;;;;;;17.63;80.70;98544.75;1825494;77;21154;-69
2021/06/09 20:52:27;;;;;;;7.67;5.80;;;;;;;17.60;81.06;98546.99;1870559;76;22125;-64
2021/06/09 20:55:05;;;;;;;8.85;6.30;;;;;;;17.55;81.31;98546.24;1869704;76;22260;-63
2021/06/09 20:57:40;;;;;;;9.18;6.33;;;;;;;17.50;81.82;98541.16;1889912;76;22124;-68
2021/06/09 21:00:16;;;;;;;7.12;5.80;;;;;;;17.49;81.92;98548.56;1870573;76;22176;-67
2021/06/09 21:03:04;;;;;;;9.55;6.22;;;;;;;17.44;82.39;98549.11;1760449;81;21132;-67
2021/06/09 21:05:42;;;;;;;8.45;6.42;;;;;;;17.54;82.52;98536.72;1870473;76;22554;-66
2021/06/09 21:08:18;;;;;;;9.33;6.37;;;;;;;17.50;82.45;98545.08;1889986;76;22146;-67
2021/06/09 21:10:54;;;;;;;10.20;6.78;;;;;;;17.44;82.91;98543.05;1854547;76;38245;-65
2021/06/09 21:13:29;;;;;;;11.85;7.10;;;;;;;17.47;83.22;98549.03;1856278;76;22164;-64
2021/06/09 21:16:15;;;;;;;9.75;6.40;;;;;;;17.43;83.53;98551.33;1827659;78;21121;-63
2021/06/09 21:18:50;;;;;;;7.25;5.97;;;;;;;17.50;83.61;98547.69;1870583;76;22152;-64
2021/06/09 21:21:25;;;;;;;10.93;6.67;;;;;;;17.48;83.76;98546.86;1870748;76;22116;-64
2021/06/09 21:24:10;;;;;;;9.58;6.95;;;;;;;17.46;83.83;98533.44;1760240;81;21229;-67
2021/06/09 21:27:07;;;;;;;9.65;6.53;;;;;;;17.54;83.80;98538.88;1889771;76;28513;-66
2021/06/09 21:29:41;;;;;;;12.78;7.17;;;;;;;17.50;83.90;98535.06;1870576;76;23427;-63
2021/06/09 21:32:16;;;;;;;9.95;7.00;;;;;;;17.46;84.00;98537.35;1870645;76;22172;-66
2021/06/09 21:34:51;;;;;;;10.10;7.67;;;;;;;17.46;84.25;98534.29;1858851;76;22626;-64
2021/06/09 21:37:32;;;;;;;13.75;8.30;;;;;;;17.46;84.21;98536.90;1869700;76;22202;-64
2021/06/09 21:40:10;;;;;;;11.80;7.80;;;;;;;17.50;84.16;98539.86;1851934;76;22531;-62
2021/06/09 21:42:44;;;;;;;11.60;7.65;;;;;;;17.50;84.23;98541.16;1864242;76;20564;-64
2021/06/09 21:45:19;;;;;;;9.13;7.40;;;;;;;17.50;84.34;98533.34;1835040;76;28570;-64
2021/06/09 21:47:55;;;;;;;9.55;6.95;;;;;;;17.51;84.34;98545.47;1851051;76;28035;-69
2021/06/09 21:50:29;;;;;;;8.88;6.83;;;;;;;17.50;84.48;98539.86;1853320;76;22174;-64
2021/06/09 21:53:15;;;;;;;7.70;6.53;;;;;;;17.37;84.76;98542.31;1827662;78;21134;-64
2021/06/09 21:55:51;;;;;;;8.68;6.95;;;;;;;17.36;85.30;98538.01;1870647;76;22579;-67
2021/06/09 21:58:25;;;;;;;9.98;7.47;;;;;;;17.40;85.19;98534.42;1889850;76;22144;-65
2021/06/09 22:01:01;;;;;;;11.25;7.10;;;;;;;17.41;85.43;98529.63;1854537;76;28310;-64
2021/06/09 22:03:36;;;;;;;8.18;6.00;;;;;;;17.53;85.13;98520.20;1870603;76;22112;-62
2021/06/09 22:06:12;;;;;;;12.75;6.95;;;;;;;17.58;84.87;98522.71;1870624;76;22128;-64
2021/06/09 22:08:48;;;;;;;9.00;7.15;;;;;;;17.50;84.93;98526.81;1870435;76;22162;-64
2021/06/09 22:11:28;;;;;;;11.85;8.15;;;;;;;17.54;85.03;98519.75;1869708;76;22142;-65
2021/06/09 22:14:04;;;;;;;13.08;7.62;;;;;;;17.61;84.74;98529.61;1870724;76;22144;-64
2021/06/09 22:16:39;;;;;;;8.30;6.55;;;;;;;17.57;84.68;98517.91;1870402;76;20584;-65
2021/06/09 22:19:14;;;;;;;9.00;6.83;;;;;;;17.57;84.69;98521.83;1889872;76;22574;-65
2021/06/09 22:21:49;;;;;;;10.00;7.25;;;;;;;17.55;84.76;98513.20;1889675;76;22188;-65
2021/06/09 22:24:24;;;;;;;11.08;7.20;;;;;;;17.55;84.82;98507.11;1854546;76;27995;-66
2021/06/09 22:26:59;;;;;;;12.58;7.22;;;;;;;17.53;84.81;98516.30;1870594;76;22120;-63
2021/06/09 22:29:34;;;;;;;9.65;7.10;;;;;;;17.47;84.96;98509.91;1889888;76;22147;-64
2021/06/09 22:32:11;;;;;;;9.38;6.75;;;;;;;17.32;85.43;98506.36;1889855;76;20363;-65
2021/06/09 22:34:45;;;;;;;9.83;6.47;;;;;;;17.22;85.87;98500.50;1854796;76;27934;-61
2021/06/09 22:37:21;;;;;;;9.95;6.45;;;;;;;17.17;86.24;98501.50;1854531;76;38231;-65
2021/06/09 22:39:56;;;;;;;9.90;6.70;;;;;;;17.17;86.48;98493.68;1870596;76;22261;-65
2021/06/09 22:42:31;;;;;;;8.65;6.75;;;;;;;17.14;86.59;98495.45;1870745;76;22109;-66
2021/06/09 22:45:08;;;;;;;10.10;7.70;;;;;;;17.08;86.88;98492.16;1889901;76;22143;-63
2021/06/09 22:47:54;;;;;;;10.00;6.65;;;;;;;16.98;87.08;98501.92;1791682;80;21561;-62
2021/06/09 22:50:28;;;;;;;7.60;6.70;;;;;;;16.95;87.46;98486.81;1889930;76;22164;-62
2021/06/09 22:53:04;;;;;;;7.90;6.50;;;;;;;16.91;87.57;98488.61;1870580;76;22141;-64
2021/06/09 22:55:39;;;;;;;8.50;7.00;;;;;;;16.88;87.89;98483.48;1873862;76;27943;-61
2021/06/09 22:58:15;;;;;;;9.20;6.20;;;;;;;16.86;88.05;98474.83;1870530;76;22156;-62
2021/06/09 23:00:52;;;;;;;9.63;6.80;;;;;;;16.84;88.34;98484.00;1870854;76;22560;-62
2021/06/09 23:03:26;;;;;;;8.85;6.87;;;;;;;16.70;88.74;98480.34;1890151;76;22116;-65
2021/06/09 23:06:01;;;;;;;9.93;7.00;;;;;;;16.65;89.11;98480.04;1889941;76;22131;-62
2021/06/09 23:08:36;;;;;;;9.38;6.97;;;;;;;16.58;89.51;98472.78;1870595;76;22149;-63
2021/06/09 23:11:11;;;;;;;11.05;7.58;;;;;;;16.53;89.66;98468.56;1870615;76;22142;-62
2021/06/09 23:13:59;;;;;;;10.40;6.15;;;;;;;16.49;89.75;98471.70;1827500;78;21724;-61
2021/06/09 23:16:33;;;;;;;10.88;7.28;;;;;;;16.57;90.02;98471.53;1889903;76;22152;-63
2021/06/09 23:19:08;;;;;;;11.35;7.33;;;;;;;16.57;90.19;98465.02;1870601;76;22137;-64
2021/06/09 23:21:43;;;;;;;10.13;6.80;;;;;;;16.49;90.38;98467.34;1870604;76;22148;-64
2021/06/09 23:24:18;;;;;;;9.53;6.70;;;;;;;16.46;90.59;98473.03;1873837;76;27978;-64
2021/06/09 23:26:59;;;;;;;9.48;6.37;;;;;;;16.42;90.77;98464.89;1889885;76;22143;-61
2021/06/09 23:29:45;;;;;;;9.03;5.80;;;;;;;16.37;90.96;98473.24;1861107;77;21324;-62
2021/06/09 23:32:20;;;;;;;9.50;6.30;;;;;;;16.36;91.17;98468.91;1854729;76;38257;-62
2021/06/09 23:34:55;;;;;;;11.12;6.72;;;;;;;16.39;91.39;98470.17;1870617;76;22170;-62
2021/06/09 23:37:30;;;;;;;9.15;6.22;;;;;;;16.39;91.19;98463.66;1870670;76;22152;-64
2021/06/09 23:40:09;;;;;;;10.28;6.25;;;;;;;16.35;91.39;98464.59;1870615;76;22153;-64
2021/06/09 23:42:44;;;;;;;7.83;6.33;;;;;;;16.30;91.54;98463.84;1870615;76;22141;-63
2021/06/09 23:45:25;;;;;;;8.00;6.20;;;;;;;16.32;91.63;98452.50;1869859;76;22251;-61
2021/06/09 23:48:00;;;;;;;9.45;6.10;;;;;;;16.27;91.84;98456.48;1854659;76;28025;-63
2021/06/09 23:53:14;;;;;;;12.13;6.10;;;;;;;16.41;91.84;98454.05;1870616;76;22133;-63
2021/06/09 23:55:48;;;;;;;8.90;6.20;;;;;;;16.47;91.37;98456.54;1854926;76;27899;-63
2021/06/09 23:58:24;;;;;;;8.20;6.00;;;;;;;16.53;91.19;98452.48;1854724;76;27946;-64
